createdAt,value
2018-12-01T00:00:38.273Z,36.77
2018-12-01T00:03:07.712Z,54.60
2018-12-01T00:05:37.088Z,59.53
2018-12-01T00:08:06.712Z,45.17
2018-12-01T00:10:36.212Z,87.27
2018-12-01T00:13:05.710Z,39.27
2018-12-01T00:15:35.130Z,79.50
2018-12-01T00:18:04.567Z,24.40
2018-12-01T00:20:36.832Z,40.73
2018-12-01T00:23:07.692Z,35.20
2018-12-01T00:25:37.160Z,46.63
2018-12-01T00:28:06.705Z,36.47
2018-12-01T00:30:36.164Z,24.77
2018-12-01T00:33:05.585Z,74.67
2018-12-01T00:35:34.993Z,35.73
2018-12-01T00:38:04.384Z,28.50
2018-12-01T00:40:33.799Z,37.67
2018-12-01T00:43:03.208Z,48.50
2018-12-01T00:45:32.633Z,23.57
2018-12-01T00:48:02.051Z,29.27
2018-12-01T00:50:31.502Z,70.13
2018-12-01T00:53:00.885Z,25.03
2018-12-01T00:55:30.269Z,36.60
2018-12-01T00:57:59.661Z,31.60
2018-12-01T01:00:29.289Z,23.70
2018-12-01T01:02:59.752Z,19.63
2018-12-01T01:05:31.939Z,53.23
2018-12-01T01:08:01.936Z,56.93
2018-12-01T01:10:34.705Z,47.17
2018-12-01T01:13:03.400Z,35.92
2018-12-01T01:15:32.776Z,22.67
2018-12-01T01:18:02.169Z,31.67
2018-12-01T01:20:31.566Z,28.60
2018-12-01T01:23:00.981Z,21.70
2018-12-01T01:25:30.368Z,22.33
2018-12-01T01:27:59.748Z,64.60
2018-12-01T01:30:29.133Z,20.30
2018-12-01T01:33:15.624Z,21.02
2018-12-01T01:35:45.016Z,19.10
2018-12-01T01:38:14.404Z,23.80
2018-12-01T01:40:43.815Z,29.20
2018-12-01T01:43:13.206Z,21.00
2018-12-01T01:45:42.596Z,21.90
2018-12-01T01:48:12.018Z,20.37
2018-12-01T01:50:41.421Z,40.03
2018-12-01T01:53:10.861Z,19.77
2018-12-01T01:55:40.248Z,35.67
2018-12-01T01:58:09.665Z,22.30
2018-12-01T02:00:39.112Z,18.50
2018-12-01T02:03:08.532Z,33.03
2018-12-01T02:05:37.925Z,33.90
2018-12-01T02:08:07.361Z,29.57
2018-12-01T02:10:36.724Z,21.27
2018-12-01T02:13:06.177Z,19.00
2018-12-01T02:15:35.561Z,38.60
2018-12-01T02:18:05.254Z,30.87
2018-12-01T02:20:34.664Z,21.70
2018-12-01T02:23:04.042Z,27.30
2018-12-01T02:25:33.453Z,21.60
2018-12-01T02:28:02.833Z,36.27
2018-12-01T02:30:32.285Z,31.80
2018-12-01T02:33:01.740Z,19.40
2018-12-01T02:35:31.437Z,35.70
2018-12-01T02:38:00.821Z,22.87
2018-12-01T02:40:30.233Z,21.03
2018-12-01T02:42:59.932Z,30.70
2018-12-01T02:45:46.479Z,19.60
2018-12-01T02:48:15.876Z,34.67
2018-12-01T02:50:45.242Z,36.47
2018-12-01T02:53:14.680Z,20.40
2018-12-01T02:55:44.089Z,22.60
2018-12-01T02:58:13.491Z,29.67
2018-12-01T03:00:42.918Z,25.47
2018-12-01T03:03:12.317Z,25.03
2018-12-01T03:05:41.693Z,19.57
2018-12-01T03:08:11.094Z,22.60
2018-12-01T03:10:40.512Z,23.70
2018-12-01T03:13:10.001Z,20.08
2018-12-01T03:15:39.392Z,19.07
2018-12-01T03:18:13.501Z,20.80
2018-12-01T03:20:38.181Z,15.30
2018-12-01T03:23:07.590Z,19.63
2018-12-01T03:25:36.975Z,17.50
2018-12-01T03:28:06.790Z,25.40
2018-12-01T03:30:36.181Z,15.60
2018-12-01T03:33:05.584Z,23.10
2018-12-01T03:35:35.018Z,22.47
2018-12-01T03:38:04.418Z,15.30
2018-12-01T03:40:38.956Z,16.53
2018-12-01T03:43:08.397Z,24.00
2018-12-01T03:45:37.801Z,20.27
2018-12-01T03:48:07.646Z,24.27
2018-12-01T03:50:37.025Z,22.90
2018-12-01T03:53:07.154Z,17.37
2018-12-01T03:55:36.524Z,16.90
2018-12-01T03:58:05.961Z,17.80
2018-12-01T04:00:36.207Z,23.23
2018-12-01T04:03:08.517Z,18.50
2018-12-01T04:05:37.981Z,18.27
2018-12-01T04:08:07.396Z,21.50
2018-12-01T04:10:36.785Z,18.83
2018-12-01T04:13:06.605Z,15.97
2018-12-01T04:15:36.020Z,21.20
2018-12-01T04:18:05.545Z,32.40
2018-12-01T04:20:34.973Z,21.57
2018-12-01T04:23:04.364Z,25.02
2018-12-01T04:25:33.737Z,23.40
2018-12-01T04:28:03.105Z,17.97
2018-12-01T04:30:32.525Z,19.30
2018-12-01T04:33:01.910Z,20.30
2018-12-01T04:35:31.300Z,18.63
2018-12-01T04:38:00.684Z,28.00
2018-12-01T04:40:30.068Z,29.60
2018-12-01T04:42:59.501Z,25.07
2018-12-01T04:45:28.893Z,17.37
2018-12-01T04:47:58.309Z,22.20
2018-12-01T04:50:28.041Z,21.60
2018-12-01T04:52:57.432Z,23.60
2018-12-01T04:55:26.840Z,28.97
2018-12-01T04:57:56.256Z,30.47
2018-12-01T05:00:25.698Z,23.10
2018-12-01T05:02:55.108Z,26.90
2018-12-01T05:05:24.504Z,22.47
2018-12-01T05:07:53.888Z,24.80
2018-12-01T05:10:23.812Z,32.97
2018-12-01T05:12:53.197Z,27.27
2018-12-01T05:15:22.565Z,29.80
2018-12-01T05:17:52.045Z,23.17
2018-12-01T05:20:24.440Z,29.63
2018-12-01T05:22:54.561Z,33.10
2018-12-01T05:25:23.965Z,23.83
2018-12-01T05:27:53.392Z,20.60
2018-12-01T05:30:22.799Z,21.30
2018-12-01T05:32:52.190Z,20.50
2018-12-01T05:35:24.353Z,25.10
2018-12-01T05:37:53.776Z,18.57
2018-12-01T05:40:23.425Z,23.60
2018-12-01T05:42:52.849Z,17.57
2018-12-01T05:45:23.202Z,31.87
2018-12-01T05:47:53.223Z,18.95
2018-12-01T05:50:24.162Z,20.10
2018-12-01T05:52:54.915Z,20.23
2018-12-01T05:55:24.364Z,19.17
2018-12-01T05:57:53.845Z,20.20
2018-12-01T06:00:23.309Z,20.00
2018-12-01T06:02:52.714Z,19.40
2018-12-01T06:05:22.078Z,23.50
2018-12-01T06:07:51.492Z,21.33
2018-12-01T06:10:22.941Z,18.53
2018-12-01T06:12:53.816Z,21.20
2018-12-01T06:15:23.429Z,19.33
2018-12-01T06:17:52.832Z,19.40
2018-12-01T06:20:23.828Z,18.70
2018-12-01T06:22:53.197Z,18.30
2018-12-01T06:25:24.293Z,20.67
2018-12-01T06:27:53.696Z,20.20
2018-12-01T06:30:23.091Z,24.63
2018-12-01T06:32:53.321Z,18.80
2018-12-01T06:35:22.810Z,17.30
2018-12-01T06:37:52.250Z,16.40
2018-12-01T06:40:22.372Z,19.50
2018-12-01T06:42:51.784Z,19.63
2018-12-01T06:45:21.181Z,16.20
2018-12-01T06:47:50.584Z,16.03
2018-12-01T06:50:23.444Z,16.07
2018-12-01T06:52:53.924Z,22.60
2018-12-01T06:55:24.217Z,20.53
2018-12-01T06:57:53.622Z,22.50
2018-12-01T07:00:25.307Z,16.60
2018-12-01T07:02:56.480Z,14.80
2018-12-01T07:05:25.868Z,19.63
2018-12-01T07:07:55.237Z,19.47
2018-12-01T07:10:24.850Z,20.00
2018-12-01T07:13:00.433Z,23.30
2018-12-01T07:15:39.045Z,19.77
2018-12-01T07:18:25.326Z,17.97
2018-12-01T07:20:54.731Z,19.00
2018-12-01T07:23:24.175Z,21.80
2018-12-01T07:25:53.653Z,21.50
2018-12-01T07:28:23.062Z,23.83
2018-12-01T07:30:52.484Z,22.40
2018-12-01T07:33:21.914Z,20.27
2018-12-01T07:35:51.312Z,18.97
2018-12-01T07:38:20.709Z,18.90
2018-12-01T07:40:50.089Z,18.40
2018-12-01T07:43:19.481Z,22.23
2018-12-01T07:45:48.857Z,18.03
2018-12-01T07:48:18.251Z,19.25
2018-12-01T07:50:47.644Z,18.63
2018-12-01T07:53:17.543Z,17.47
2018-12-01T07:55:46.464Z,19.80
2018-12-01T07:58:15.980Z,18.40
2018-12-01T08:00:45.383Z,18.23
2018-12-01T08:03:14.752Z,19.27
2018-12-01T08:05:44.162Z,19.17
2018-12-01T08:08:13.549Z,17.37
2018-12-01T08:10:42.944Z,15.80
2018-12-01T08:13:12.349Z,16.70
2018-12-01T08:15:41.753Z,18.00
2018-12-01T08:18:11.142Z,19.60
2018-12-01T08:20:40.533Z,19.93
2018-12-01T08:23:09.940Z,16.90
2018-12-01T08:25:39.333Z,16.00
2018-12-01T08:28:10.772Z,15.83
2018-12-01T08:30:41.161Z,18.23
2018-12-01T08:33:10.550Z,16.80
2018-12-01T08:35:39.957Z,22.57
2018-12-01T08:38:09.339Z,17.50
2018-12-01T08:40:38.737Z,19.20
2018-12-01T08:43:08.121Z,13.80
2018-12-01T08:45:37.522Z,20.50
2018-12-01T08:48:08.237Z,17.40
2018-12-01T08:50:38.448Z,13.30
2018-12-01T08:53:08.021Z,13.70
2018-12-01T08:55:37.424Z,14.13
2018-12-01T08:58:06.893Z,15.47
2018-12-01T09:00:41.240Z,14.83
2018-12-01T09:03:25.213Z,14.10
2018-12-01T09:05:54.943Z,13.57
2018-12-01T09:08:24.309Z,17.37
2018-12-01T09:10:53.789Z,14.07
2018-12-01T09:13:23.165Z,15.63
2018-12-01T09:15:52.567Z,12.30
2018-12-01T09:18:21.973Z,14.50
2018-12-01T09:20:51.461Z,13.33
2018-12-01T09:23:20.898Z,13.40
2018-12-01T09:25:50.297Z,13.43
2018-12-01T09:28:19.699Z,15.60
2018-12-01T09:30:49.120Z,12.60
2018-12-01T09:33:18.500Z,12.43
2018-12-01T09:35:47.897Z,11.67
2018-12-01T09:38:17.313Z,13.77
2018-12-01T09:40:46.705Z,15.63
2018-12-01T09:43:16.075Z,12.00
2018-12-01T09:45:45.460Z,10.87
2018-12-01T09:48:14.869Z,13.30
2018-12-01T09:50:44.250Z,10.60
2018-12-01T09:53:13.663Z,11.17
2018-12-01T09:55:43.062Z,13.10
2018-12-01T09:58:12.443Z,12.00
2018-12-01T10:00:41.851Z,9.10
2018-12-01T10:03:11.230Z,11.67
2018-12-01T10:05:40.673Z,10.20
2018-12-01T10:08:10.089Z,15.47
2018-12-01T10:10:39.580Z,12.33
2018-12-01T10:13:09.003Z,10.67
2018-12-01T10:15:38.577Z,12.53
2018-12-01T10:18:09.605Z,11.60
2018-12-01T10:20:38.987Z,9.23
2018-12-01T10:23:12.217Z,11.43
2018-12-01T10:25:41.616Z,10.00
2018-12-01T10:28:11.791Z,11.90
2018-12-01T10:30:41.237Z,9.20
2018-12-01T10:33:10.658Z,13.67
2018-12-01T10:35:40.045Z,11.40
2018-12-01T10:38:15.140Z,12.70
2018-12-01T10:40:44.532Z,10.47
2018-12-01T10:43:13.929Z,10.20
2018-12-01T10:45:43.362Z,12.20
2018-12-01T10:48:12.780Z,10.30
2018-12-01T10:50:42.168Z,10.10
2018-12-01T10:53:11.609Z,10.47
2018-12-01T10:55:41.028Z,11.30
2018-12-01T10:58:27.277Z,10.20
2018-12-01T11:01:01.888Z,7.90
2018-12-01T11:03:36.736Z,9.43
2018-12-01T11:06:13.866Z,6.90
2018-12-01T11:08:43.289Z,9.37
2018-12-01T11:11:12.703Z,8.70
2018-12-01T11:13:42.161Z,9.83
2018-12-01T11:16:11.529Z,8.90
2018-12-01T11:18:40.963Z,7.50
2018-12-01T11:21:10.344Z,9.13
2018-12-01T11:23:39.723Z,9.90
2018-12-01T11:26:09.165Z,10.00
2018-12-01T11:28:38.889Z,9.30
2018-12-01T11:31:08.286Z,8.67
2018-12-01T11:33:37.781Z,9.67
2018-12-01T11:36:07.192Z,10.17
2018-12-01T11:38:36.606Z,8.17
2018-12-01T11:41:06.728Z,7.10
2018-12-01T11:43:36.154Z,7.30
2018-12-01T11:46:05.597Z,8.50
2018-12-01T11:48:35.017Z,9.13
2018-12-01T11:51:04.439Z,7.97
2018-12-01T11:53:33.913Z,7.10
2018-12-01T11:56:03.325Z,9.97
2018-12-01T11:58:32.707Z,9.60
2018-12-01T12:01:02.111Z,7.63
2018-12-01T12:03:31.509Z,7.70
2018-12-01T12:06:00.913Z,8.80
2018-12-01T12:08:30.349Z,6.28
2018-12-01T12:10:59.729Z,7.73
2018-12-01T12:13:29.298Z,7.83
2018-12-01T12:15:58.670Z,6.03
2018-12-01T12:18:28.905Z,7.40
2018-12-01T12:20:57.673Z,8.43
2018-12-01T12:23:27.057Z,7.00
2018-12-01T12:25:56.422Z,7.60
2018-12-01T12:28:25.820Z,8.30
2018-12-01T12:30:55.190Z,6.17
2018-12-01T12:33:24.604Z,6.70
2018-12-01T12:35:53.999Z,6.20
2018-12-01T12:38:23.377Z,7.40
2018-12-01T12:40:52.768Z,7.30
2018-12-01T12:43:22.185Z,6.67
2018-12-01T12:45:51.564Z,7.90
2018-12-01T12:48:20.956Z,6.53
2018-12-01T12:50:53.148Z,7.87
2018-12-01T12:53:19.739Z,8.70
2018-12-01T12:55:49.124Z,7.47
2018-12-01T12:58:18.492Z,8.10
2018-12-01T13:00:47.889Z,6.13
2018-12-01T13:03:17.324Z,5.60
2018-12-01T13:05:48.527Z,7.60
2018-12-01T13:08:20.013Z,5.20
2018-12-01T13:10:49.467Z,7.10
2018-12-01T13:13:18.829Z,6.43
2018-12-01T13:15:48.225Z,7.30
2018-12-01T13:18:17.636Z,7.90
2018-12-01T13:20:48.065Z,7.30
2018-12-01T13:23:17.459Z,7.00
2018-12-01T13:25:46.842Z,7.70
2018-12-01T13:28:24.451Z,6.43
2018-12-01T13:30:59.717Z,7.67
2018-12-01T13:33:29.300Z,5.60
2018-12-01T13:35:59.071Z,6.20
2018-12-01T13:38:28.671Z,7.60
2018-12-01T13:40:58.049Z,7.70
2018-12-01T13:43:27.449Z,6.77
2018-12-01T13:45:56.867Z,5.57
2018-12-01T13:48:26.277Z,6.97
2018-12-01T13:50:56.528Z,6.90
2018-12-01T13:53:25.943Z,7.83
2018-12-01T13:55:55.653Z,11.10
2018-12-01T13:58:25.056Z,8.57
2018-12-01T14:00:54.421Z,8.03
2018-12-01T14:03:23.904Z,6.90
2018-12-01T14:05:53.285Z,6.13
2018-12-01T14:08:22.693Z,7.50
2018-12-01T14:10:52.704Z,6.10
2018-12-01T14:13:22.157Z,6.50
2018-12-01T14:15:51.549Z,6.60
2018-12-01T14:18:21.293Z,7.43
2018-12-01T14:20:51.013Z,9.20
2018-12-01T14:23:21.886Z,9.87
2018-12-01T14:25:50.424Z,7.20
2018-12-01T14:28:19.798Z,6.93
2018-12-01T14:30:49.194Z,5.90
2018-12-01T14:33:18.593Z,6.67
2018-12-01T14:35:47.988Z,9.40
2018-12-01T14:38:19.333Z,8.40
2018-12-01T14:40:50.877Z,8.07
2018-12-01T14:43:20.301Z,6.87
2018-12-01T14:45:50.634Z,6.13
2018-12-01T14:48:20.031Z,9.43
2018-12-01T14:50:49.412Z,8.13
2018-12-01T14:53:19.660Z,5.33
2018-12-01T14:55:49.033Z,5.47
2018-12-01T14:58:18.413Z,5.03
2018-12-01T15:00:47.804Z,6.13
2018-12-01T15:03:17.200Z,5.87
2018-12-01T15:05:46.600Z,5.70
2018-12-01T15:08:16.323Z,6.00
2018-12-01T15:10:45.965Z,5.90
2018-12-01T15:13:15.659Z,5.70
2018-12-01T15:15:45.444Z,7.63
2018-12-01T15:18:15.301Z,6.80
2018-12-01T15:20:45.130Z,18.60
2018-12-01T15:23:14.730Z,8.37
2018-12-01T15:25:44.416Z,5.37
2018-12-01T15:28:14.167Z,6.20
2018-12-01T15:30:43.817Z,5.77
2018-12-01T15:33:15.400Z,6.50
2018-12-01T15:35:46.367Z,7.93
2018-12-01T15:38:16.385Z,7.47
2018-12-01T15:40:50.255Z,6.47
2018-12-01T15:43:20.045Z,6.63
2018-12-01T15:45:49.672Z,5.00
2018-12-01T15:48:19.364Z,6.33
2018-12-01T15:50:49.088Z,5.40
2018-12-01T15:53:18.780Z,6.10
2018-12-01T15:55:48.547Z,6.23
2018-12-01T15:58:17.925Z,7.40
2018-12-01T16:00:47.399Z,6.47
2018-12-01T16:03:16.849Z,5.90
2018-12-01T16:05:46.268Z,6.57
2018-12-01T16:08:15.717Z,7.30
2018-12-01T16:10:45.088Z,7.07
2018-12-01T16:13:17.172Z,10.20
2018-12-01T16:15:58.760Z,9.57
2018-12-01T16:18:28.253Z,8.30
2018-12-01T16:20:57.709Z,6.30
2018-12-01T16:23:27.133Z,7.90
2018-12-01T16:25:56.554Z,7.23
2018-12-01T16:28:25.956Z,8.00
2018-12-01T16:30:55.622Z,5.87
2018-12-01T16:33:26.064Z,6.00
2018-12-01T16:35:55.435Z,6.70
2018-12-01T16:38:28.556Z,8.67
2018-12-01T16:41:01.623Z,10.00
2018-12-01T16:43:34.378Z,6.53
2018-12-01T16:46:04.285Z,8.60
2018-12-01T16:48:33.765Z,6.50
2018-12-01T16:51:03.190Z,8.00
2018-12-01T16:53:32.565Z,7.17
2018-12-01T16:56:02.005Z,7.03
2018-12-01T16:58:31.417Z,8.53
2018-12-01T17:01:00.805Z,8.27
2018-12-01T17:03:30.217Z,7.17
2018-12-01T17:06:02.512Z,8.67
2018-12-01T17:08:31.905Z,8.27
2018-12-01T17:11:01.414Z,13.40
2018-12-01T17:13:30.876Z,8.20
2018-12-01T17:16:00.416Z,8.53
2018-12-01T17:18:29.833Z,8.40
2018-12-01T17:20:59.255Z,7.77
2018-12-01T17:23:28.737Z,7.83
2018-12-01T17:25:58.146Z,8.43
2018-12-01T17:28:27.558Z,8.40
2018-12-01T17:30:56.987Z,8.90
2018-12-01T17:33:26.641Z,13.00
2018-12-01T17:35:56.089Z,6.60
2018-12-01T17:38:25.488Z,6.50
2018-12-01T17:41:11.470Z,9.10
2018-12-01T17:43:48.954Z,10.50
2018-12-01T17:46:18.401Z,12.07
2018-12-01T17:48:47.885Z,11.20
2018-12-01T17:51:17.282Z,14.13
2018-12-01T17:53:49.815Z,10.70
2018-12-01T17:56:19.257Z,10.83
2018-12-01T17:58:49.006Z,12.00
2018-12-01T18:01:18.743Z,13.23
2018-12-01T18:03:48.544Z,10.57
2018-12-01T18:06:18.311Z,9.50
2018-12-01T18:08:47.749Z,13.53
2018-12-01T18:11:17.684Z,13.53
2018-12-01T18:13:47.117Z,13.67
2018-12-01T18:16:16.495Z,13.00
2018-12-01T18:18:45.979Z,17.20
2018-12-01T18:21:15.438Z,16.53
2018-12-01T18:23:44.852Z,16.93
2018-12-01T18:26:14.226Z,15.80
2018-12-01T18:28:50.302Z,18.40
2018-12-01T18:31:23.495Z,10.57
2018-12-01T18:34:11.012Z,12.77
2018-12-01T18:36:40.421Z,15.30
2018-12-01T18:39:15.557Z,15.70
2018-12-01T18:41:45.026Z,13.60
2018-12-01T18:44:14.405Z,25.20
2018-12-01T18:46:43.882Z,16.73
2018-12-01T18:49:13.417Z,13.40
2018-12-01T18:51:42.888Z,12.60
2018-12-01T18:54:12.309Z,19.33
2018-12-01T18:56:48.415Z,12.67
2018-12-01T18:59:18.133Z,13.08
2018-12-01T19:01:51.263Z,10.87
2018-12-01T19:04:21.082Z,11.28
2018-12-01T19:06:50.845Z,13.13
2018-12-01T19:09:20.269Z,11.63
2018-12-01T19:11:49.640Z,12.67
2018-12-01T19:14:19.042Z,11.47
2018-12-01T19:16:48.438Z,10.50
2018-12-01T19:19:17.853Z,9.67
2018-12-01T19:21:47.233Z,11.17
2018-12-01T19:24:16.625Z,12.58
2018-12-01T19:26:46.016Z,11.63
2018-12-01T19:29:15.436Z,9.30
2018-12-01T19:31:44.822Z,9.60
2018-12-01T19:34:14.249Z,21.63
2018-12-01T19:36:43.720Z,8.63
2018-12-01T19:39:13.104Z,8.47
2018-12-01T19:41:42.529Z,8.77
2018-12-01T19:44:11.926Z,17.27
2018-12-01T19:46:41.309Z,9.10
2018-12-01T19:49:10.746Z,10.05
2018-12-01T19:51:40.135Z,9.43
2018-12-01T19:54:09.546Z,16.97
2018-12-01T19:56:38.943Z,10.40
2018-12-01T19:59:08.370Z,11.43
2018-12-01T20:01:37.785Z,12.37
2018-12-01T20:04:07.429Z,14.33
2018-12-01T20:06:36.865Z,14.40
2018-12-01T20:09:08.449Z,7.73
2018-12-01T20:11:37.851Z,9.50
2018-12-01T20:14:11.493Z,12.03
2018-12-01T20:16:43.772Z,7.20
2018-12-01T20:19:13.522Z,9.23
2018-12-01T20:21:43.413Z,8.60
2018-12-01T20:24:12.831Z,14.50
2018-12-01T20:26:43.336Z,8.43
2018-12-01T20:29:12.793Z,9.57
2018-12-01T20:31:42.190Z,6.30
2018-12-01T20:34:11.721Z,14.30
2018-12-01T20:36:49.669Z,8.17
2018-12-01T20:39:25.792Z,8.20
2018-12-01T20:41:55.248Z,8.67
2018-12-01T20:44:24.642Z,7.47
2018-12-01T20:46:54.080Z,8.70
2018-12-01T20:49:23.489Z,8.20
2018-12-01T20:51:52.877Z,6.60
2018-12-01T20:54:37.805Z,6.23
2018-12-01T20:57:16.097Z,7.70
2018-12-01T20:59:45.504Z,5.80
2018-12-01T21:02:14.985Z,5.93
2018-12-01T21:04:44.445Z,6.80
2018-12-01T21:07:13.857Z,6.27
2018-12-01T21:09:43.237Z,6.93
2018-12-01T21:12:14.247Z,6.27
2018-12-01T21:14:43.630Z,4.80
2018-12-01T21:17:13.065Z,7.73
2018-12-01T21:19:42.453Z,5.13
2018-12-01T21:22:11.861Z,6.63
2018-12-01T21:24:41.290Z,6.10
2018-12-01T21:27:10.676Z,7.90
2018-12-01T21:29:40.085Z,6.57
2018-12-01T21:32:09.584Z,7.57
2018-12-01T21:34:39.249Z,5.87
2018-12-01T21:37:08.714Z,7.30
2018-12-01T21:39:38.105Z,8.10
2018-12-01T21:42:07.765Z,7.83
2018-12-01T21:44:37.227Z,8.60
2018-12-01T21:47:07.270Z,10.50
2018-12-01T21:49:36.754Z,9.60
2018-12-01T21:52:06.605Z,9.50
2018-12-01T21:54:36.031Z,15.08
2018-12-01T21:57:05.439Z,11.87
2018-12-01T21:59:34.913Z,14.80
2018-12-01T22:02:04.565Z,10.67
2018-12-01T22:04:34.081Z,9.77
2018-12-01T22:07:03.453Z,10.60
2018-12-01T22:09:32.889Z,13.63
2018-12-01T22:12:02.312Z,12.10
2018-12-01T22:14:31.677Z,12.10
2018-12-01T22:17:01.150Z,11.83
2018-12-01T22:19:30.533Z,10.00
2018-12-01T22:22:01.948Z,12.80
2018-12-01T22:24:31.339Z,11.47
2018-12-01T22:27:00.820Z,13.90
2018-12-01T22:29:30.213Z,14.53
2018-12-01T22:31:59.691Z,11.23
2018-12-01T22:34:29.070Z,10.87
2018-12-01T22:36:58.498Z,10.63
2018-12-01T22:39:27.925Z,13.93
2018-12-01T22:41:57.293Z,10.37
2018-12-01T22:44:26.688Z,13.60
2018-12-01T22:46:56.064Z,11.20
2018-12-01T22:49:25.469Z,12.57
2018-12-01T22:51:54.862Z,14.10
2018-12-01T22:54:24.241Z,13.55
2018-12-01T22:56:53.633Z,13.67
2018-12-01T22:59:23.001Z,10.80
2018-12-01T23:01:52.481Z,18.10
2018-12-01T23:04:21.908Z,10.67
2018-12-01T23:06:51.329Z,11.57
2018-12-01T23:09:20.761Z,12.07
2018-12-01T23:11:50.220Z,12.07
2018-12-01T23:14:19.596Z,14.63
2018-12-01T23:16:48.993Z,12.93
2018-12-01T23:19:18.384Z,10.30
2018-12-01T23:21:47.800Z,12.27
2018-12-01T23:24:17.221Z,11.57
2018-12-01T23:26:46.630Z,16.23
2018-12-01T23:29:16.017Z,11.70
2018-12-01T23:31:45.474Z,11.87
2018-12-01T23:34:14.901Z,17.40
2018-12-01T23:36:44.309Z,13.70
2018-12-01T23:39:13.696Z,12.80
2018-12-01T23:41:43.083Z,12.20
2018-12-01T23:44:20.341Z,16.30
2018-12-01T23:46:49.717Z,14.13
2018-12-01T23:49:19.119Z,16.70
2018-12-01T23:51:48.540Z,12.27
2018-12-01T23:54:17.933Z,16.43
2018-12-01T23:56:47.348Z,13.07
2018-12-01T23:59:16.748Z,12.23
